Time;durP1;ratioP1;P1;durP2;ratioP2;P2;SDS_P1;SDS_P2;PMS_P1;PMS_P2;Temp;Humidity;BMP_temperature;BMP_pressure;BME280_temperature;BME280_humidity;BME280_pressure;Samples;Min_cycle;Max_cycle;Signal;HPM_P1;HPM_P2
2021/01/30 00:01:26;;;;;;;6.60;2.60;;;;;;;;;;5077952;28;20209;-68
2021/01/30 00:03:51;;;;;;;4.80;3.13;;;;;;;;;;5085057;28;20205;-69
2021/01/30 00:06:16;;;;;;;4.53;2.30;;;;;;;;;;5087023;28;20184;-68
2021/01/30 00:08:42;;;;;;;7.33;3.20;;;;;;;;;;5077772;28;20680;-68
2021/01/30 00:11:09;;;;;;;4.73;3.20;;;;;;;;;;5076978;28;20176;-69
2021/01/30 00:13:34;;;;;;;4.23;3.00;;;;;;;;;;5074056;28;20300;-68
2021/01/30 00:15:59;;;;;;;8.47;3.47;;;;;;;;;;5077602;28;20849;-69
2021/01/30 00:18:24;;;;;;;5.57;3.13;;;;;;;;;;5080081;28;20733;-69
2021/01/30 00:20:49;;;;;;;5.33;3.60;;;;;;;;;;5071630;28;20203;-69
2021/01/30 00:23:15;;;;;;;6.63;3.13;;;;;;;;;;5073251;28;20216;-69
2021/01/30 00:25:40;;;;;;;6.07;3.40;;;;;;;;;;5072613;28;20177;-69
2021/01/30 00:28:06;;;;;;;8.13;3.53;;;;;;;;;;5072037;28;20179;-69
2021/01/30 00:30:32;;;;;;;5.57;2.77;;;;;;;;;;5083402;28;20238;-68
2021/01/30 00:32:57;;;;;;;3.53;2.63;;;;;;;;;;5084570;28;20208;-69
2021/01/30 00:35:24;;;;;;;5.60;3.13;;;;;;;;;;5077672;28;20214;-68
2021/01/30 00:37:50;;;;;;;6.23;2.60;;;;;;;;;;5077575;28;20187;-68
2021/01/30 00:40:16;;;;;;;7.90;3.27;;;;;;;;;;5083700;28;20204;-69
2021/01/30 00:42:41;;;;;;;7.37;2.80;;;;;;;;;;5081094;28;20176;-69
2021/01/30 00:45:07;;;;;;;5.53;2.33;;;;;;;;;;5086678;28;20183;-68
2021/01/30 00:47:32;;;;;;;4.43;2.97;;;;;;;;;;5075094;28;20566;-69
2021/01/30 00:49:57;;;;;;;5.00;2.63;;;;;;;;;;5078245;28;20172;-69
2021/01/30 00:52:24;;;;;;;5.43;2.20;;;;;;;;;;5084503;28;20633;-69
2021/01/30 00:54:50;;;;;;;6.60;2.53;;;;;;;;;;5088911;28;20197;-69
2021/01/30 00:57:15;;;;;;;4.37;2.60;;;;;;;;;;5085740;28;20233;-69
2021/01/30 00:59:41;;;;;;;5.27;3.17;;;;;;;;;;5082234;28;20696;-69
2021/01/30 01:02:06;;;;;;;3.30;2.83;;;;;;;;;;5081049;28;20263;-69
2021/01/30 01:04:31;;;;;;;4.00;2.70;;;;;;;;;;5080513;28;20204;-69
2021/01/30 01:06:56;;;;;;;5.05;3.20;;;;;;;;;;5084376;28;20184;-69
2021/01/30 01:09:21;;;;;;;3.67;2.80;;;;;;;;;;5085808;28;20180;-69
2021/01/30 01:11:48;;;;;;;4.63;3.97;;;;;;;;;;5084529;28;20529;-69
2021/01/30 01:14:14;;;;;;;5.73;3.47;;;;;;;;;;5079665;28;20665;-69
2021/01/30 01:16:39;;;;;;;4.30;3.40;;;;;;;;;;5081893;28;20208;-70
2021/01/30 01:19:05;;;;;;;5.57;3.93;;;;;;;;;;5072282;28;20198;-69
2021/01/30 01:21:30;;;;;;;4.47;4.07;;;;;;;;;;5082196;28;20212;-69
2021/01/30 01:23:56;;;;;;;5.80;4.00;;;;;;;;;;5083473;28;20196;-69
2021/01/30 01:26:21;;;;;;;4.70;4.27;;;;;;;;;;5080625;28;20267;-69
2021/01/30 01:28:49;;;;;;;5.97;4.73;;;;;;;;;;5083998;28;20187;-69
2021/01/30 01:31:14;;;;;;;4.77;4.03;;;;;;;;;;5078541;28;20188;-69
2021/01/30 01:33:39;;;;;;;5.23;4.63;;;;;;;;;;5085079;28;20196;-69
2021/01/30 01:36:04;;;;;;;6.10;5.10;;;;;;;;;;5087439;28;20200;-69
2021/01/30 01:38:30;;;;;;;6.13;5.00;;;;;;;;;;5081021;28;20188;-69
2021/01/30 01:40:55;;;;;;;5.40;4.90;;;;;;;;;;5086665;28;20203;-69
2021/01/30 01:43:21;;;;;;;6.23;5.57;;;;;;;;;;5087893;28;20200;-69
2021/01/30 01:46:00;;;;;;;5.60;5.10;;;;;;;;;;5081363;28;20180;-68
2021/01/30 01:48:28;;;;;;;5.87;5.23;;;;;;;;;;5081179;28;20180;-69
2021/01/30 01:50:55;;;;;;;6.63;5.53;;;;;;;;;;5082193;28;20230;-70
2021/01/30 01:53:20;;;;;;;6.90;6.07;;;;;;;;;;5090171;28;20195;-69
2021/01/30 01:55:47;;;;;;;6.55;5.82;;;;;;;;;;5073463;28;20176;-69
2021/01/30 01:58:13;;;;;;;7.00;6.17;;;;;;;;;;5089885;28;20622;-70
2021/01/30 02:00:38;;;;;;;6.33;5.73;;;;;;;;;;5085394;28;20212;-70
2021/01/30 02:03:03;;;;;;;6.40;5.40;;;;;;;;;;5084633;28;20281;-69
2021/01/30 02:05:30;;;;;;;6.37;5.70;;;;;;;;;;5090011;28;20176;-70
2021/01/30 02:08:01;;;;;;;8.33;6.40;;;;;;;;;;5079432;28;20204;-69
2021/01/30 02:10:28;;;;;;;6.37;5.30;;;;;;;;;;5082263;28;20196;-69
2021/01/30 02:12:57;;;;;;;6.33;5.23;;;;;;;;;;5085844;28;20180;-70
2021/01/30 02:15:23;;;;;;;6.77;6.07;;;;;;;;;;5076708;28;20275;-69
2021/01/30 02:18:00;;;;;;;6.83;5.87;;;;;;;;;;5080331;28;20632;-69
2021/01/30 02:20:48;;;;;;;7.97;6.00;;;;;;;;;;5081993;28;20203;-69
2021/01/30 02:23:32;;;;;;;6.77;5.70;;;;;;;;;;5081437;28;20278;-69
2021/01/30 02:26:16;;;;;;;6.77;5.77;;;;;;;;;;5083921;28;20172;-70
2021/01/30 02:28:44;;;;;;;8.97;6.83;;;;;;;;;;5085600;28;20180;-69
2021/01/30 02:31:15;;;;;;;8.13;6.30;;;;;;;;;;5083410;28;20187;-69
2021/01/30 02:33:49;;;;;;;9.23;7.07;;;;;;;;;;5084033;28;20261;-70
2021/01/30 02:36:26;;;;;;;9.07;6.83;;;;;;;;;;5081174;28;20181;-69
2021/01/30 02:39:11;;;;;;;11.40;7.30;;;;;;;;;;5086969;28;20618;-69
2021/01/30 02:41:38;;;;;;;9.07;7.73;;;;;;;;;;5078806;28;20215;-69
2021/01/30 02:44:05;;;;;;;7.93;7.07;;;;;;;;;;5081827;28;20258;-69
2021/01/30 02:46:33;;;;;;;9.03;7.63;;;;;;;;;;5078575;28;20261;-70
2021/01/30 02:49:01;;;;;;;11.33;7.80;;;;;;;;;;5080890;28;20180;-69
2021/01/30 02:51:29;;;;;;;7.77;6.47;;;;;;;;;;5078222;28;20650;-69
2021/01/30 02:53:59;;;;;;;9.87;7.40;;;;;;;;;;5083092;28;20607;-70
2021/01/30 02:56:24;;;;;;;10.80;8.23;;;;;;;;;;5077728;28;20192;-70
2021/01/30 02:58:52;;;;;;;9.40;7.57;;;;;;;;;;5074822;28;20188;-69
2021/01/30 03:01:17;;;;;;;10.20;8.10;;;;;;;;;;5078313;28;20215;-70
2021/01/30 03:03:42;;;;;;;9.07;7.30;;;;;;;;;;5083786;28;20238;-70
2021/01/30 03:06:14;;;;;;;9.53;7.77;;;;;;;;;;5088448;28;20200;-69
2021/01/30 03:08:50;;;;;;;8.60;7.17;;;;;;;;;;5082263;28;20188;-70
2021/01/30 03:11:19;;;;;;;8.83;7.47;;;;;;;;;;5081407;28;20183;-69
2021/01/30 03:13:52;;;;;;;8.57;6.47;;;;;;;;;;5081369;28;20234;-68
2021/01/30 03:16:19;;;;;;;9.90;8.30;;;;;;;;;;5081807;28;20202;-69
2021/01/30 03:18:56;;;;;;;9.83;8.23;;;;;;;;;;5085626;28;20181;-69
2021/01/30 03:21:21;;;;;;;9.00;7.93;;;;;;;;;;5089847;28;20209;-69
2021/01/30 03:23:46;;;;;;;9.77;8.37;;;;;;;;;;5080610;28;20207;-70
2021/01/30 03:26:14;;;;;;;9.93;8.30;;;;;;;;;;5081441;28;20234;-70
2021/01/30 03:28:40;;;;;;;9.73;8.50;;;;;;;;;;5085202;28;20256;-70
2021/01/30 03:31:05;;;;;;;9.20;7.93;;;;;;;;;;5084955;28;20267;-70
2021/01/30 03:33:30;;;;;;;9.77;8.10;;;;;;;;;;5089664;28;20211;-70
2021/01/30 03:35:56;;;;;;;11.00;8.40;;;;;;;;;;5080824;28;20189;-70
2021/01/30 03:38:21;;;;;;;9.70;8.00;;;;;;;;;;5081711;28;20204;-70
2021/01/30 03:40:46;;;;;;;8.77;7.77;;;;;;;;;;5084616;28;20208;-70
2021/01/30 03:43:12;;;;;;;9.73;8.00;;;;;;;;;;5089049;28;20199;-70
2021/01/30 03:45:37;;;;;;;8.90;7.30;;;;;;;;;;5077577;28;20224;-70
2021/01/30 03:48:02;;;;;;;8.37;6.53;;;;;;;;;;5081281;28;20181;-70
2021/01/30 03:50:27;;;;;;;9.10;7.03;;;;;;;;;;5078692;28;20263;-70
2021/01/30 03:52:53;;;;;;;7.23;6.50;;;;;;;;;;5081856;28;20658;-70
2021/01/30 03:55:19;;;;;;;7.30;6.60;;;;;;;;;;5086689;28;20188;-70
2021/01/30 03:57:44;;;;;;;8.37;6.83;;;;;;;;;;5078988;28;20314;-70
2021/01/30 04:00:12;;;;;;;9.20;7.10;;;;;;;;;;5080878;28;20287;-70
2021/01/30 04:02:38;;;;;;;9.17;7.40;;;;;;;;;;5076723;28;20257;-70
2021/01/30 04:05:04;;;;;;;8.57;7.07;;;;;;;;;;5082739;28;20216;-70
2021/01/30 04:07:29;;;;;;;8.13;7.23;;;;;;;;;;5082609;28;20180;-70
2021/01/30 04:09:54;;;;;;;8.67;7.17;;;;;;;;;;5083394;28;20752;-70
2021/01/30 04:12:20;;;;;;;8.33;6.70;;;;;;;;;;5075261;28;20185;-70
2021/01/30 04:14:45;;;;;;;6.63;5.93;;;;;;;;;;5079760;28;20224;-69
2021/01/30 04:17:10;;;;;;;7.30;6.37;;;;;;;;;;5084962;28;20196;-70
2021/01/30 04:19:36;;;;;;;7.63;5.97;;;;;;;;;;5082581;28;20283;-70
2021/01/30 04:22:02;;;;;;;6.63;5.97;;;;;;;;;;5083444;28;20184;-70
2021/01/30 04:24:27;;;;;;;7.33;6.60;;;;;;;;;;5081813;28;20278;-70
2021/01/30 04:26:52;;;;;;;7.43;6.50;;;;;;;;;;5083982;28;20299;-70
2021/01/30 04:29:17;;;;;;;7.63;6.13;;;;;;;;;;5078817;28;20256;-70
2021/01/30 04:31:42;;;;;;;6.57;5.87;;;;;;;;;;5083310;28;20188;-70
2021/01/30 04:34:07;;;;;;;8.13;6.57;;;;;;;;;;5084615;28;20188;-70
2021/01/30 04:36:33;;;;;;;9.67;6.97;;;;;;;;;;5082622;28;20184;-70
2021/01/30 04:38:58;;;;;;;7.13;6.00;;;;;;;;;;5084454;28;20726;-70
2021/01/30 04:41:29;;;;;;;7.73;6.10;;;;;;;;;;5085758;28;20212;-70
2021/01/30 04:44:10;;;;;;;7.73;6.17;;;;;;;;;;5079896;28;20200;-69
2021/01/30 04:46:50;;;;;;;6.43;5.03;;;;;;;;;;5079773;28;20176;-70
2021/01/30 04:49:16;;;;;;;6.73;5.23;;;;;;;;;;5084726;28;20226;-70
2021/01/30 04:51:41;;;;;;;6.03;5.43;;;;;;;;;;5082152;28;20188;-70
2021/01/30 04:54:16;;;;;;;6.00;5.18;;;;;;;;;;5086944;28;20201;-69
2021/01/30 04:56:41;;;;;;;5.60;4.67;;;;;;;;;;5083330;28;20233;-70
2021/01/30 04:59:25;;;;;;;6.53;5.05;;;;;;;;;;5087836;28;20180;-70
2021/01/30 05:01:53;;;;;;;5.17;4.53;;;;;;;;;;5078807;28;20295;-69
2021/01/30 05:04:20;;;;;;;6.03;4.33;;;;;;;;;;5071698;28;20205;-69
2021/01/30 05:06:51;;;;;;;6.90;5.23;;;;;;;;;;5064585;28;20184;-69
2021/01/30 05:09:22;;;;;;;5.07;3.93;;;;;;;;;;5063163;28;20195;-69
2021/01/30 05:11:56;;;;;;;5.77;4.63;;;;;;;;;;5063452;28;20629;-69
2021/01/30 05:14:25;;;;;;;7.07;5.13;;;;;;;;;;5058200;28;20210;-70
2021/01/30 05:16:57;;;;;;;7.13;5.27;;;;;;;;;;5055692;28;20628;-70
2021/01/30 05:19:23;;;;;;;5.93;4.37;;;;;;;;;;5062839;28;20185;-70
2021/01/30 05:21:54;;;;;;;6.53;5.60;;;;;;;;;;5082690;28;20212;-70
2021/01/30 05:24:20;;;;;;;5.67;4.53;;;;;;;;;;5086557;28;20764;-70
2021/01/30 05:26:48;;;;;;;5.60;4.70;;;;;;;;;;5086015;28;20180;-70
2021/01/30 05:29:18;;;;;;;5.17;4.63;;;;;;;;;;5074297;28;20177;-70
2021/01/30 05:31:54;;;;;;;6.73;5.13;;;;;;;;;;5090432;28;20191;-70
2021/01/30 05:34:24;;;;;;;5.93;5.03;;;;;;;;;;5074921;28;20720;-70
2021/01/30 05:37:01;;;;;;;6.37;4.97;;;;;;;;;;5090326;28;20195;-70
2021/01/30 05:39:43;;;;;;;5.63;4.80;;;;;;;;;;5092612;28;20671;-70
2021/01/30 05:42:08;;;;;;;6.20;5.07;;;;;;;;;;5088161;28;20184;-70
2021/01/30 05:44:54;;;;;;;6.97;5.10;;;;;;;;;;5086005;28;20703;-69
2021/01/30 05:47:21;;;;;;;8.17;4.80;;;;;;;;;;5086556;28;20697;-70
2021/01/30 05:49:55;;;;;;;5.97;4.70;;;;;;;;;;5082786;28;20211;-70
2021/01/30 05:52:25;;;;;;;6.80;4.90;;;;;;;;;;5088217;28;20556;-70
2021/01/30 05:54:50;;;;;;;7.30;4.63;;;;;;;;;;5088914;28;20282;-70
2021/01/30 05:57:16;;;;;;;7.27;4.70;;;;;;;;;;5086635;28;20618;-70
2021/01/30 05:59:46;;;;;;;7.27;4.93;;;;;;;;;;5084511;28;20186;-70
2021/01/30 06:02:15;;;;;;;7.47;5.53;;;;;;;;;;5076760;28;20177;-70
2021/01/30 06:04:41;;;;;;;7.03;5.30;;;;;;;;;;5080259;28;20188;-70
2021/01/30 06:07:17;;;;;;;6.57;5.17;;;;;;;;;;5082465;28;20535;-70
2021/01/30 06:09:44;;;;;;;6.87;5.10;;;;;;;;;;5085942;28;20537;-70
2021/01/30 06:12:17;;;;;;;6.50;5.33;;;;;;;;;;5080001;28;20269;-70
2021/01/30 06:14:42;;;;;;;6.27;4.77;;;;;;;;;;5079500;28;20208;-69
2021/01/30 06:17:16;;;;;;;7.73;5.33;;;;;;;;;;5078890;28;20192;-70
2021/01/30 06:19:42;;;;;;;6.07;5.23;;;;;;;;;;5074858;28;20180;-70
2021/01/30 06:22:12;;;;;;;6.50;4.60;;;;;;;;;;5079728;28;20177;-70
2021/01/30 06:24:44;;;;;;;7.20;5.57;;;;;;;;;;5089049;28;20632;-70
2021/01/30 06:27:12;;;;;;;8.17;6.00;;;;;;;;;;5079890;28;20675;-70
2021/01/30 06:29:42;;;;;;;6.63;5.27;;;;;;;;;;5082292;28;20189;-70
2021/01/30 06:32:21;;;;;;;7.80;5.63;;;;;;;;;;5070900;28;20228;-70
2021/01/30 06:34:48;;;;;;;6.57;4.93;;;;;;;;;;5084035;28;20847;-70
2021/01/30 06:37:15;;;;;;;7.13;4.80;;;;;;;;;;5078364;28;20192;-70
2021/01/30 06:39:42;;;;;;;7.20;4.90;;;;;;;;;;5086804;28;20181;-70
2021/01/30 06:42:09;;;;;;;6.23;4.83;;;;;;;;;;5086055;28;20179;-69
2021/01/30 06:44:35;;;;;;;7.77;5.30;;;;;;;;;;5083659;28;20574;-70
2021/01/30 06:47:03;;;;;;;6.60;5.43;;;;;;;;;;5084038;28;20179;-69
2021/01/30 06:49:32;;;;;;;5.27;4.27;;;;;;;;;;5081291;28;20177;-70
2021/01/30 06:52:24;;;;;;;6.40;5.23;;;;;;;;;;5079110;28;20184;-70
2021/01/30 06:55:04;;;;;;;7.33;5.30;;;;;;;;;;5089794;28;20204;-69
2021/01/30 06:57:31;;;;;;;6.13;4.73;;;;;;;;;;5084454;28;20755;-70
2021/01/30 06:59:58;;;;;;;7.40;5.60;;;;;;;;;;5081657;28;20185;-70
2021/01/30 07:02:36;;;;;;;9.17;6.70;;;;;;;;;;5080943;28;20211;-69
2021/01/30 07:05:10;;;;;;;7.03;5.23;;;;;;;;;;5087432;28;20208;-70
2021/01/30 07:07:46;;;;;;;6.27;5.20;;;;;;;;;;5083334;28;20175;-70
2021/01/30 07:10:14;;;;;;;6.37;4.60;;;;;;;;;;5083090;28;20274;-70
2021/01/30 07:12:51;;;;;;;8.73;5.03;;;;;;;;;;5090525;28;20237;-69
2021/01/30 07:15:21;;;;;;;6.10;5.10;;;;;;;;;;5078951;28;20183;-70
2021/01/30 07:17:51;;;;;;;6.20;5.10;;;;;;;;;;5083782;28;20188;-70
2021/01/30 07:20:29;;;;;;;7.27;5.50;;;;;;;;;;5083784;28;20678;-70
2021/01/30 07:23:07;;;;;;;5.77;4.57;;;;;;;;;;5084022;28;20551;-70
2021/01/30 07:25:38;;;;;;;6.57;4.27;;;;;;;;;;5083134;28;20177;-70
2021/01/30 07:28:11;;;;;;;6.63;4.97;;;;;;;;;;5081216;28;20189;-70
2021/01/30 07:30:36;;;;;;;7.23;5.17;;;;;;;;;;5083737;28;20633;-70
2021/01/30 07:33:08;;;;;;;7.57;4.90;;;;;;;;;;5090089;28;20612;-70
2021/01/30 07:35:41;;;;;;;6.67;5.03;;;;;;;;;;5088716;28;20191;-69
2021/01/30 07:38:17;;;;;;;7.43;5.37;;;;;;;;;;5087191;28;20188;-70
2021/01/30 07:40:42;;;;;;;5.97;4.83;;;;;;;;;;5088625;28;20239;-70
2021/01/30 07:43:13;;;;;;;7.13;4.73;;;;;;;;;;5090369;28;20215;-70
2021/01/30 07:45:43;;;;;;;6.30;4.47;;;;;;;;;;5082006;28;20177;-69
2021/01/30 07:48:11;;;;;;;6.13;4.10;;;;;;;;;;5086387;28;20527;-70
2021/01/30 07:50:38;;;;;;;6.37;4.67;;;;;;;;;;5086845;28;20174;-70
2021/01/30 07:53:14;;;;;;;6.17;4.00;;;;;;;;;;5083001;28;20250;-70
2021/01/30 07:56:00;;;;;;;5.83;3.97;;;;;;;;;;5083880;28;20593;-70
2021/01/30 07:58:41;;;;;;;5.73;3.83;;;;;;;;;;5079505;28;20192;-70
2021/01/30 08:01:18;;;;;;;5.50;4.37;;;;;;;;;;5079310;28;20969;-69
2021/01/30 08:03:58;;;;;;;7.27;4.83;;;;;;;;;;5083364;28;20204;-70
2021/01/30 08:06:26;;;;;;;7.03;4.63;;;;;;;;;;5082342;28;20180;-69
2021/01/30 08:08:58;;;;;;;7.20;4.97;;;;;;;;;;5076286;28;20229;-70
2021/01/30 08:11:28;;;;;;;7.03;5.23;;;;;;;;;;5082897;28;20199;-69
2021/01/30 08:13:58;;;;;;;6.17;5.00;;;;;;;;;;5080118;28;20970;-69
2021/01/30 08:16:23;;;;;;;7.10;5.67;;;;;;;;;;5079051;28;20222;-70
2021/01/30 08:18:49;;;;;;;8.35;6.25;;;;;;;;;;5080769;28;20176;-70
2021/01/30 08:21:33;;;;;;;7.97;5.53;;;;;;;;;;5084625;28;20228;-70
2021/01/30 08:24:05;;;;;;;7.13;5.50;;;;;;;;;;5083370;28;20795;-70
2021/01/30 08:26:30;;;;;;;7.90;5.17;;;;;;;;;;5078143;28;20180;-70
2021/01/30 08:29:06;;;;;;;7.50;5.70;;;;;;;;;;5078804;28;20184;-70
2021/01/30 08:31:39;;;;;;;7.30;5.67;;;;;;;;;;5081394;28;20245;-69
2021/01/30 08:34:07;;;;;;;8.20;5.90;;;;;;;;;;5092094;28;20219;-70
2021/01/30 08:36:34;;;;;;;7.67;5.70;;;;;;;;;;5083123;28;20252;-69
2021/01/30 08:39:05;;;;;;;8.10;5.60;;;;;;;;;;5085120;28;20654;-69
2021/01/30 08:41:42;;;;;;;8.33;5.30;;;;;;;;;;5086915;28;20713;-69
2021/01/30 08:44:17;;;;;;;6.50;4.80;;;;;;;;;;5086426;28;20704;-70
2021/01/30 08:46:43;;;;;;;7.33;5.40;;;;;;;;;;5081071;28;20178;-69
2021/01/30 08:49:08;;;;;;;8.63;5.93;;;;;;;;;;5085323;28;20185;-70
2021/01/30 08:51:34;;;;;;;7.75;5.75;;;;;;;;;;5088948;28;20180;-70
2021/01/30 08:54:19;;;;;;;6.83;5.00;;;;;;;;;;5088726;28;20206;-70
2021/01/30 08:56:48;;;;;;;8.13;5.53;;;;;;;;;;5078266;28;20482;-69
2021/01/30 08:59:32;;;;;;;7.40;5.10;;;;;;;;;;5081874;28;20196;-70
2021/01/30 09:01:57;;;;;;;7.23;5.40;;;;;;;;;;5078160;28;20557;-70
2021/01/30 09:04:40;;;;;;;8.53;4.80;;;;;;;;;;5081876;28;20199;-70
2021/01/30 09:07:05;;;;;;;7.00;4.90;;;;;;;;;;5075806;28;20185;-69
2021/01/30 09:09:31;;;;;;;6.77;4.93;;;;;;;;;;5080106;28;20183;-69
2021/01/30 09:12:02;;;;;;;8.73;5.20;;;;;;;;;;5080833;28;20180;-70
2021/01/30 09:14:27;;;;;;;6.20;4.70;;;;;;;;;;5080263;28;20207;-70
2021/01/30 09:17:04;;;;;;;7.37;4.70;;;;;;;;;;5081297;28;20199;-69
2021/01/30 09:19:39;;;;;;;8.83;6.10;;;;;;;;;;5078751;28;20180;-68
2021/01/30 09:22:16;;;;;;;7.80;4.47;;;;;;;;;;5089246;28;20213;-69
2021/01/30 09:25:00;;;;;;;6.10;4.50;;;;;;;;;;5084924;28;20203;-70
2021/01/30 09:27:27;;;;;;;6.30;4.67;;;;;;;;;;5077908;28;20181;-70
2021/01/30 09:29:54;;;;;;;8.03;4.53;;;;;;;;;;5081246;28;20187;-70
2021/01/30 09:32:27;;;;;;;7.60;4.77;;;;;;;;;;5078797;28;20191;-70
2021/01/30 09:34:58;;;;;;;7.70;5.07;;;;;;;;;;5088081;28;20192;-70
2021/01/30 09:37:27;;;;;;;7.40;4.73;;;;;;;;;;5082132;28;20601;-69
2021/01/30 09:39:57;;;;;;;7.23;4.60;;;;;;;;;;5077804;28;20230;-69
2021/01/30 09:42:22;;;;;;;7.17;5.10;;;;;;;;;;5084092;28;20233;-70
2021/01/30 09:45:01;;;;;;;5.03;4.10;;;;;;;;;;5082101;28;20283;-69
2021/01/30 09:47:26;;;;;;;7.13;4.57;;;;;;;;;;5081765;28;20653;-69
2021/01/30 09:49:57;;;;;;;7.80;5.33;;;;;;;;;;5082616;28;20211;-69
2021/01/30 09:52:22;;;;;;;6.20;4.70;;;;;;;;;;5084272;28;20211;-70
2021/01/30 09:54:54;;;;;;;5.77;4.23;;;;;;;;;;5078606;28;20634;-69
2021/01/30 09:57:21;;;;;;;6.27;4.27;;;;;;;;;;5077844;28;20207;-70
2021/01/30 09:59:53;;;;;;;6.63;4.70;;;;;;;;;;5069497;28;20256;-70
2021/01/30 10:02:19;;;;;;;6.27;4.40;;;;;;;;;;5074838;28;20300;-69
2021/01/30 10:04:45;;;;;;;6.17;4.47;;;;;;;;;;5074253;28;20283;-69
2021/01/30 10:07:13;;;;;;;7.37;4.40;;;;;;;;;;5079968;28;20176;-70
2021/01/30 10:09:42;;;;;;;7.43;5.30;;;;;;;;;;5073678;28;20289;-70
2021/01/30 10:12:08;;;;;;;5.87;4.50;;;;;;;;;;5074046;28;20259;-70
2021/01/30 10:14:35;;;;;;;6.20;4.83;;;;;;;;;;5077603;28;20347;-70
2021/01/30 10:17:02;;;;;;;6.67;5.43;;;;;;;;;;5080822;28;20200;-70
2021/01/30 10:19:29;;;;;;;6.73;4.33;;;;;;;;;;5078178;28;20263;-70
2021/01/30 10:21:55;;;;;;;6.47;4.30;;;;;;;;;;5077670;28;20582;-70
2021/01/30 10:24:20;;;;;;;7.13;4.63;;;;;;;;;;5082723;28;20193;-70
2021/01/30 10:26:45;;;;;;;5.87;4.20;;;;;;;;;;5083198;28;20204;-70
2021/01/30 10:29:12;;;;;;;6.27;4.57;;;;;;;;;;5080552;28;20181;-70
2021/01/30 10:31:45;;;;;;;7.10;5.23;;;;;;;;;;5090105;28;20556;-70
2021/01/30 10:34:25;;;;;;;5.83;4.47;;;;;;;;;;5078768;28;20206;-70
2021/01/30 10:37:03;;;;;;;5.73;4.27;;;;;;;;;;5084325;28;20242;-70
2021/01/30 10:39:32;;;;;;;7.17;4.53;;;;;;;;;;5078041;28;20683;-70
2021/01/30 10:42:04;;;;;;;6.27;4.37;;;;;;;;;;5083991;28;20205;-70
2021/01/30 10:44:30;;;;;;;5.03;4.27;;;;;;;;;;5086120;28;20200;-69
2021/01/30 10:47:01;;;;;;;6.57;4.53;;;;;;;;;;5080460;28;20535;-69
2021/01/30 10:49:26;;;;;;;6.67;4.30;;;;;;;;;;5083216;28;20261;-69
2021/01/30 10:52:01;;;;;;;6.75;4.82;;;;;;;;;;5076865;28;20184;-69
2021/01/30 10:54:28;;;;;;;5.77;4.10;;;;;;;;;;5092068;28;20199;-69
2021/01/30 10:57:00;;;;;;;5.70;4.20;;;;;;;;;;5078801;28;20203;-70
2021/01/30 10:59:26;;;;;;;6.17;4.10;;;;;;;;;;5080809;28;20189;-70
2021/01/30 11:01:51;;;;;;;6.03;4.50;;;;;;;;;;5088430;28;20572;-70
2021/01/30 11:04:24;;;;;;;5.80;4.43;;;;;;;;;;5077088;28;20639;-69
2021/01/30 11:06:49;;;;;;;6.00;4.47;;;;;;;;;;5079401;28;20191;-70
2021/01/30 11:09:16;;;;;;;6.83;4.67;;;;;;;;;;5085914;28;20260;-69
2021/01/30 11:11:42;;;;;;;5.73;4.43;;;;;;;;;;5080354;28;20179;-70
2021/01/30 11:14:14;;;;;;;6.23;4.40;;;;;;;;;;5083375;28;20644;-70
2021/01/30 11:16:40;;;;;;;7.33;4.87;;;;;;;;;;5078403;28;20662;-69
2021/01/30 11:19:23;;;;;;;6.03;4.63;;;;;;;;;;5080818;28;20263;-69
2021/01/30 11:21:50;;;;;;;7.33;4.37;;;;;;;;;;5084001;28;20216;-70
2021/01/30 11:24:35;;;;;;;7.63;5.63;;;;;;;;;;5083651;28;20197;-70
2021/01/30 11:27:00;;;;;;;6.43;4.40;;;;;;;;;;5083472;28;20712;-69
2021/01/30 11:29:32;;;;;;;6.33;4.40;;;;;;;;;;5081358;28;20173;-70
2021/01/30 11:31:58;;;;;;;6.30;4.93;;;;;;;;;;5080359;28;20537;-69
2021/01/30 11:34:24;;;;;;;5.83;4.53;;;;;;;;;;5083400;28;20223;-70
2021/01/30 11:36:49;;;;;;;8.73;4.53;;;;;;;;;;5083611;28;20195;-70
2021/01/30 11:39:14;;;;;;;5.53;3.93;;;;;;;;;;5086218;28;20276;-70
2021/01/30 11:41:39;;;;;;;5.93;4.47;;;;;;;;;;5083485;28;20212;-69
2021/01/30 11:44:05;;;;;;;5.77;4.40;;;;;;;;;;5082826;28;20232;-70
2021/01/30 11:46:30;;;;;;;5.33;4.13;;;;;;;;;;5083971;28;20192;-70
2021/01/30 11:48:55;;;;;;;6.27;4.73;;;;;;;;;;5077084;28;20553;-70
2021/01/30 11:51:28;;;;;;;5.50;4.50;;;;;;;;;;5080005;28;20181;-70
2021/01/30 11:53:54;;;;;;;5.13;4.20;;;;;;;;;;5091726;28;20200;-69
2021/01/30 11:56:19;;;;;;;5.33;4.47;;;;;;;;;;5083331;28;20677;-70
2021/01/30 11:58:45;;;;;;;6.67;4.50;;;;;;;;;;5084710;28;20188;-70
2021/01/30 12:01:11;;;;;;;6.87;5.00;;;;;;;;;;5088184;28;20196;-70
2021/01/30 12:03:36;;;;;;;5.87;4.57;;;;;;;;;;5084044;28;20196;-69
2021/01/30 12:06:02;;;;;;;5.60;4.37;;;;;;;;;;5081711;28;20653;-70
2021/01/30 12:08:27;;;;;;;6.30;4.80;;;;;;;;;;5084354;28;20176;-69
2021/01/30 12:10:52;;;;;;;6.83;5.10;;;;;;;;;;5085659;28;20187;-70
2021/01/30 12:13:18;;;;;;;6.57;4.87;;;;;;;;;;5086440;28;20742;-69
2021/01/30 12:15:43;;;;;;;6.87;5.27;;;;;;;;;;5080949;28;20180;-70
2021/01/30 12:18:10;;;;;;;6.23;5.00;;;;;;;;;;5079277;28;20185;-69
2021/01/30 12:20:35;;;;;;;6.63;5.20;;;;;;;;;;5087573;28;20617;-69
2021/01/30 12:23:02;;;;;;;6.20;5.00;;;;;;;;;;5081568;28;20203;-70
2021/01/30 12:25:27;;;;;;;5.73;4.87;;;;;;;;;;5080997;28;20220;-70
2021/01/30 12:27:53;;;;;;;6.03;4.77;;;;;;;;;;5086527;28;20183;-70
2021/01/30 12:30:19;;;;;;;5.70;4.70;;;;;;;;;;5091673;28;20182;-70
2021/01/30 12:32:45;;;;;;;5.10;4.20;;;;;;;;;;5081130;28;20271;-70
2021/01/30 12:35:11;;;;;;;5.50;4.70;;;;;;;;;;5082241;28;20287;-70
2021/01/30 12:37:37;;;;;;;5.40;4.33;;;;;;;;;;5089023;28;20191;-70
2021/01/30 12:40:03;;;;;;;5.13;4.10;;;;;;;;;;5081694;28;20181;-69
2021/01/30 12:42:28;;;;;;;5.40;4.50;;;;;;;;;;5079330;28;20180;-68
2021/01/30 12:44:54;;;;;;;5.57;4.47;;;;;;;;;;5081651;28;20192;-69
2021/01/30 12:47:26;;;;;;;5.97;4.30;;;;;;;;;;5077178;28;20177;-70
2021/01/30 12:49:51;;;;;;;5.23;4.33;;;;;;;;;;5081017;28;20188;-69
2021/01/30 12:52:16;;;;;;;6.27;4.97;;;;;;;;;;5080915;28;20605;-69
2021/01/30 12:54:42;;;;;;;6.50;5.17;;;;;;;;;;5083559;28;20208;-69
2021/01/30 12:57:07;;;;;;;5.57;4.23;;;;;;;;;;5077410;28;20211;-69
2021/01/30 12:59:32;;;;;;;5.20;4.63;;;;;;;;;;5085198;28;20188;-69
2021/01/30 13:01:58;;;;;;;5.17;4.20;;;;;;;;;;5075644;28;21019;-69
2021/01/30 13:04:23;;;;;;;5.50;4.47;;;;;;;;;;5083565;28;20208;-69
2021/01/30 13:06:48;;;;;;;6.20;4.63;;;;;;;;;;5080152;28;20195;-69
2021/01/30 13:09:13;;;;;;;6.27;5.00;;;;;;;;;;5078149;28;20187;-69
2021/01/30 13:11:38;;;;;;;6.63;4.93;;;;;;;;;;5074343;28;20200;-69
2021/01/30 13:14:03;;;;;;;5.20;4.70;;;;;;;;;;5080527;28;20204;-69
2021/01/30 13:16:29;;;;;;;6.82;5.53;;;;;;;;;;5076760;28;20205;-69
2021/01/30 13:18:54;;;;;;;7.33;5.80;;;;;;;;;;5077635;28;20184;-70
2021/01/30 13:21:19;;;;;;;7.23;5.43;;;;;;;;;;5083450;28;20204;-69
2021/01/30 13:23:44;;;;;;;5.10;4.50;;;;;;;;;;5071602;28;20247;-69
2021/01/30 13:26:10;;;;;;;5.93;5.17;;;;;;;;;;5084528;28;20241;-68
2021/01/30 13:28:35;;;;;;;6.90;5.53;;;;;;;;;;5086674;28;20262;-69
2021/01/30 13:31:01;;;;;;;7.93;5.27;;;;;;;;;;5079269;28;20348;-69
2021/01/30 13:33:26;;;;;;;6.37;5.30;;;;;;;;;;5078628;28;20261;-71
2021/01/30 13:35:51;;;;;;;6.73;5.80;;;;;;;;;;5077912;28;20188;-69
2021/01/30 13:38:16;;;;;;;6.67;5.40;;;;;;;;;;5088228;28;20192;-69
2021/01/30 13:40:42;;;;;;;6.83;5.20;;;;;;;;;;5079339;28;20287;-69
2021/01/30 13:43:07;;;;;;;6.77;5.27;;;;;;;;;;5080471;28;20250;-69
2021/01/30 13:45:33;;;;;;;5.20;4.53;;;;;;;;;;5081895;28;20181;-69
2021/01/30 13:47:58;;;;;;;6.17;5.20;;;;;;;;;;5080612;28;20181;-69
2021/01/30 13:50:24;;;;;;;7.10;4.63;;;;;;;;;;5086336;28;21668;-69
2021/01/30 13:52:50;;;;;;;13.97;5.97;;;;;;;;;;5086509;28;20192;-69
2021/01/30 13:55:15;;;;;;;7.17;4.67;;;;;;;;;;5082091;28;20176;-69
2021/01/30 13:57:40;;;;;;;5.90;4.50;;;;;;;;;;5079141;28;20651;-69
2021/01/30 14:00:06;;;;;;;5.57;4.77;;;;;;;;;;5073252;28;20231;-69
2021/01/30 14:02:31;;;;;;;6.20;5.00;;;;;;;;;;5077661;28;20585;-69
2021/01/30 14:04:56;;;;;;;7.13;5.17;;;;;;;;;;5075406;28;20203;-69
2021/01/30 14:07:21;;;;;;;6.45;5.20;;;;;;;;;;5082425;28;20180;-69
2021/01/30 14:09:46;;;;;;;6.03;4.73;;;;;;;;;;5081788;28;20190;-69
2021/01/30 14:12:11;;;;;;;6.87;5.27;;;;;;;;;;5079118;28;20181;-70
2021/01/30 14:14:37;;;;;;;6.43;5.38;;;;;;;;;;5083389;28;20192;-69
2021/01/30 14:17:02;;;;;;;8.80;4.60;;;;;;;;;;5076134;28;20188;-69
2021/01/30 14:19:27;;;;;;;6.95;4.82;;;;;;;;;;5080185;28;20526;-69
2021/01/30 14:21:56;;;;;;;6.53;5.13;;;;;;;;;;5080307;28;21639;-68
2021/01/30 14:24:21;;;;;;;6.27;5.00;;;;;;;;;;5082816;28;20732;-69
2021/01/30 14:26:47;;;;;;;6.57;4.93;;;;;;;;;;5083547;28;20204;-69
2021/01/30 14:29:13;;;;;;;7.47;5.83;;;;;;;;;;5086506;28;20192;-69
2021/01/30 14:31:38;;;;;;;7.27;5.53;;;;;;;;;;5079351;28;20188;-70
2021/01/30 14:34:03;;;;;;;7.03;5.43;;;;;;;;;;5078711;28;20197;-69
2021/01/30 14:36:28;;;;;;;6.50;5.20;;;;;;;;;;5081984;28;20627;-69
2021/01/30 14:38:53;;;;;;;6.37;5.47;;;;;;;;;;5074405;28;20701;-69
2021/01/30 14:41:19;;;;;;;7.13;5.13;;;;;;;;;;5083219;28;20724;-69
2021/01/30 14:43:44;;;;;;;6.80;5.40;;;;;;;;;;5077307;28;20197;-69
2021/01/30 14:46:09;;;;;;;6.10;5.23;;;;;;;;;;5071255;28;20177;-69
2021/01/30 14:48:35;;;;;;;7.10;5.50;;;;;;;;;;5081511;28;20237;-69
2021/01/30 14:51:00;;;;;;;6.90;5.33;;;;;;;;;;5074755;28;20191;-69